sensor_id;sensor_type;location;lat;lon;timestamp;pressure;altitude;pressure_sealevel;temperature;humidity
63343;BME280;49465;57.664;39.686;2023-01-15T00:01:58;100957.38;;;0.87;60.74
63343;BME280;49465;57.664;39.686;2023-01-15T00:04:25;100945.44;;;0.76;60.66
63343;BME280;49465;57.664;39.686;2023-01-15T00:06:54;100947.16;;;0.79;60.75
63343;BME280;49465;57.664;39.686;2023-01-15T00:09:20;100937.66;;;0.81;60.71
63343;BME280;49465;57.664;39.686;2023-01-15T00:11:50;100950.63;;;0.76;60.94
63343;BME280;49465;57.664;39.686;2023-01-15T00:14:20;100949.75;;;0.79;60.75
63343;BME280;49465;57.664;39.686;2023-01-15T00:16:54;100949.75;;;0.79;60.88
63343;BME280;49465;57.664;39.686;2023-01-15T00:19:20;100947.16;;;0.79;60.64
63343;BME280;49465;57.664;39.686;2023-01-15T00:21:47;100949.75;;;0.79;60.57
63343;BME280;49465;57.664;39.686;2023-01-15T00:24:13;100944.59;;;0.76;60.65
63343;BME280;49465;57.664;39.686;2023-01-15T00:27:00;100949.75;;;0.79;60.83
63343;BME280;49465;57.664;39.686;2023-01-15T00:29:46;100949.69;;;0.82;60.59
63343;BME280;49465;57.664;39.686;2023-01-15T00:32:15;100958.34;;;0.78;60.84
63343;BME280;49465;57.664;39.686;2023-01-15T00:34:44;100950.66;;;0.73;60.86
63343;BME280;49465;57.664;39.686;2023-01-15T00:37:10;100948.91;;;0.77;60.72
63343;BME280;49465;57.664;39.686;2023-01-15T00:39:38;100942.75;;;0.84;60.45
63343;BME280;49465;57.664;39.686;2023-01-15T00:42:04;100938.59;;;0.75;60.59
63343;BME280;49465;57.664;39.686;2023-01-15T00:44:31;100936.88;;;0.74;60.54
63343;BME280;49465;57.664;39.686;2023-01-15T00:46:58;100943.75;;;0.77;60.64
63343;BME280;49465;57.664;39.686;2023-01-15T00:49:25;100940.34;;;0.73;60.49
63343;BME280;49465;57.664;39.686;2023-01-15T00:51:51;100937.75;;;0.75;60.46
63343;BME280;49465;57.664;39.686;2023-01-15T00:54:23;100931.69;;;0.77;60.76
63343;BME280;49465;57.664;39.686;2023-01-15T00:56:50;100928.28;;;0.74;60.40
63343;BME280;49465;57.664;39.686;2023-01-15T00:59:20;100926.63;;;0.68;60.69
63343;BME280;49465;57.664;39.686;2023-01-15T01:01:46;100923.94;;;0.76;60.30
63343;BME280;49465;57.664;39.686;2023-01-15T01:04:12;100917.97;;;0.72;60.21
63343;BME280;49465;57.664;39.686;2023-01-15T01:06:39;100913.63;;;0.74;60.06
63343;BME280;49465;57.664;39.686;2023-01-15T01:09:12;100921.25;;;0.87;60.45
63343;BME280;49465;57.664;39.686;2023-01-15T01:11:39;100920.50;;;0.77;59.80
63343;BME280;49465;57.664;39.686;2023-01-15T01:14:05;100917.03;;;0.78;60.12
63343;BME280;49465;57.664;39.686;2023-01-15T01:16:34;100924.78;;;0.76;60.31
63343;BME280;49465;57.664;39.686;2023-01-15T01:19:22;100919.06;;;1.16;59.85
63343;BME280;49465;57.664;39.686;2023-01-15T01:21:50;100922.16;;;0.83;59.95
63343;BME280;49465;57.664;39.686;2023-01-15T01:24:19;100920.44;;;0.82;60.05
63343;BME280;49465;57.664;39.686;2023-01-15T01:26:49;100917.81;;;0.85;60.21
63343;BME280;49465;57.664;39.686;2023-01-15T01:29:18;100912.75;;;0.78;60.30
63343;BME280;49465;57.664;39.686;2023-01-15T01:31:47;100913.59;;;0.77;60.11
63343;BME280;49465;57.664;39.686;2023-01-15T01:34:19;100911.00;;;0.81;60.74
63343;BME280;49465;57.664;39.686;2023-01-15T01:36:45;100912.78;;;0.75;60.58
63343;BME280;49465;57.664;39.686;2023-01-15T01:39:18;100917.06;;;0.76;60.43
63343;BME280;49465;57.664;39.686;2023-01-15T01:41:48;100913.72;;;0.70;60.95
63343;BME280;49465;57.664;39.686;2023-01-15T01:47:15;100915.97;;;0.93;60.82
63343;BME280;49465;57.664;39.686;2023-01-15T01:50:16;100910.53;;;1.11;60.50
63343;BME280;49465;57.664;39.686;2023-01-15T01:52:54;100915.16;;;0.91;60.75
63343;BME280;49465;57.664;39.686;2023-01-15T01:55:23;100916.22;;;0.74;61.10
63343;BME280;49465;57.664;39.686;2023-01-15T01:57:55;100908.53;;;0.71;61.13
63343;BME280;49465;57.664;39.686;2023-01-15T02:00:31;100907.50;;;0.83;61.14
63343;BME280;49465;57.664;39.686;2023-01-15T02:03:02;100901.63;;;0.72;61.14
63343;BME280;49465;57.664;39.686;2023-01-15T02:05:34;100898.19;;;0.73;61.29
63343;BME280;49465;57.664;39.686;2023-01-15T02:08:04;100899.97;;;0.69;61.16
63343;BME280;49465;57.664;39.686;2023-01-15T02:10:36;100904.13;;;0.78;60.95
63343;BME280;49465;57.664;39.686;2023-01-15T02:15:57;100917.75;;;0.88;60.82
63343;BME280;49465;57.664;39.686;2023-01-15T02:18:45;100906.50;;;0.93;60.59
63343;BME280;49465;57.664;39.686;2023-01-15T02:24:15;100907.53;;;0.82;60.97
63343;BME280;49465;57.664;39.686;2023-01-15T02:27:45;100916.53;;;1.13;60.72
63343;BME280;49465;57.664;39.686;2023-01-15T02:30:17;100908.16;;;0.97;60.64
63343;BME280;49465;57.664;39.686;2023-01-15T02:32:55;100906.59;;;0.87;60.75
63343;BME280;49465;57.664;39.686;2023-01-15T02:35:26;100905.97;;;0.70;61.01
63343;BME280;49465;57.664;39.686;2023-01-15T02:38:05;100897.88;;;0.94;60.82
63343;BME280;49465;57.664;39.686;2023-01-15T02:40:34;100903.38;;;0.73;60.98
63343;BME280;49465;57.664;39.686;2023-01-15T02:43:04;100898.97;;;0.76;61.06
63343;BME280;49465;57.664;39.686;2023-01-15T02:45:38;100908.31;;;0.88;60.78
63343;BME280;49465;57.664;39.686;2023-01-15T02:48:14;100901.41;;;0.89;61.29
63343;BME280;49465;57.664;39.686;2023-01-15T02:51:00;100898.66;;;0.99;61.05
63343;BME280;49465;57.664;39.686;2023-01-15T02:53:32;100905.75;;;0.87;61.29
63343;BME280;49465;57.664;39.686;2023-01-15T02:56:10;100901.34;;;0.93;61.10
63343;BME280;49465;57.664;39.686;2023-01-15T02:58:42;100900.72;;;0.74;61.17
63343;BME280;49465;57.664;39.686;2023-01-15T03:01:17;100906.72;;;0.76;61.37
63343;BME280;49465;57.664;39.686;2023-01-15T03:06:40;100895.25;;;0.96;61.45
63343;BME280;49465;57.664;39.686;2023-01-15T03:09:08;100892.25;;;0.66;61.11
63343;BME280;49465;57.664;39.686;2023-01-15T03:11:42;100896.38;;;0.78;61.29
63343;BME280;49465;57.664;39.686;2023-01-15T03:14:31;100903.81;;;0.99;61.29
63343;BME280;49465;57.664;39.686;2023-01-15T03:17:17;100891.31;;;0.72;61.84
63343;BME280;49465;57.664;39.686;2023-01-15T03:19:57;100905.94;;;0.73;61.73
63343;BME280;49465;57.664;39.686;2023-01-15T03:22:35;100912.75;;;0.78;61.71
63343;BME280;49465;57.664;39.686;2023-01-15T03:25:06;100900.88;;;0.67;61.33
63343;BME280;49465;57.664;39.686;2023-01-15T03:27:34;100902.56;;;0.68;61.21
63343;BME280;49465;57.664;39.686;2023-01-15T03:30:08;100897.19;;;0.82;61.79
63343;BME280;49465;57.664;39.686;2023-01-15T03:32:35;100900.06;;;0.62;61.31
63343;BME280;49465;57.664;39.686;2023-01-15T03:35:03;100903.47;;;0.64;61.60
63343;BME280;49465;57.664;39.686;2023-01-15T03:37:31;100900.06;;;0.63;61.34
63343;BME280;49465;57.664;39.686;2023-01-15T03:39:58;100902.56;;;0.66;61.47
63343;BME280;49465;57.664;39.686;2023-01-15T03:45:13;100894.84;;;0.65;61.42
63343;BME280;49465;57.664;39.686;2023-01-15T03:50:47;100892.22;;;0.68;60.91
63343;BME280;49465;57.664;39.686;2023-01-15T03:53:18;100902.47;;;0.75;61.20
63343;BME280;49465;57.664;39.686;2023-01-15T03:56:15;100904.09;;;0.83;61.34
63343;BME280;49465;57.664;39.686;2023-01-15T03:58:55;100897.09;;;0.88;61.31
63343;BME280;49465;57.664;39.686;2023-01-15T04:01:31;100897.16;;;0.85;61.12
63343;BME280;49465;57.664;39.686;2023-01-15T04:04:00;100894.84;;;0.65;61.22
63343;BME280;49465;57.664;39.686;2023-01-15T04:06:32;100889.56;;;0.74;61.21
63343;BME280;49465;57.664;39.686;2023-01-15T04:08:59;100886.31;;;0.61;61.30
63343;BME280;49465;57.664;39.686;2023-01-15T04:11:27;100888.06;;;0.59;61.24
63343;BME280;49465;57.664;39.686;2023-01-15T04:13:56;100885.44;;;0.62;61.07
63343;BME280;49465;57.664;39.686;2023-01-15T04:16:27;100894.81;;;0.69;61.25
63343;BME280;49465;57.664;39.686;2023-01-15T04:18:54;100894.91;;;0.62;61.39
63343;BME280;49465;57.664;39.686;2023-01-15T04:21:24;100895.75;;;0.62;61.29
63343;BME280;49465;57.664;39.686;2023-01-15T04:23:51;100885.41;;;0.65;61.30
63343;BME280;49465;57.664;39.686;2023-01-15T04:26:28;100894.50;;;0.91;61.36
63343;BME280;49465;57.664;39.686;2023-01-15T04:28:55;100897.41;;;0.66;61.29
63343;BME280;49465;57.664;39.686;2023-01-15T04:31:22;100887.97;;;0.67;61.08
63343;BME280;49465;57.664;39.686;2023-01-15T04:33:52;100884.53;;;0.65;61.06
63343;BME280;49465;57.664;39.686;2023-01-15T04:36:18;100887.97;;;0.67;61.02
63343;BME280;49465;57.664;39.686;2023-01-15T04:38:45;100890.59;;;0.62;61.43
63343;BME280;49465;57.664;39.686;2023-01-15T04:41:11;100895.63;;;0.71;60.72
63343;BME280;49465;57.664;39.686;2023-01-15T04:43:56;100890.50;;;0.68;60.73
63343;BME280;49465;57.664;39.686;2023-01-15T04:46:41;100891.94;;;0.89;61.20
63343;BME280;49465;57.664;39.686;2023-01-15T04:49:13;100892.88;;;0.84;61.44
63343;BME280;49465;57.664;39.686;2023-01-15T04:51:40;100888.78;;;0.69;61.27
63343;BME280;49465;57.664;39.686;2023-01-15T04:54:11;100891.41;;;0.64;61.65
63343;BME280;49465;57.664;39.686;2023-01-15T04:56:43;100885.34;;;0.68;61.34
63343;BME280;49465;57.664;39.686;2023-01-15T04:59:20;100891.41;;;0.64;61.40
63343;BME280;49465;57.664;39.686;2023-01-15T05:01:50;100890.56;;;0.64;61.33
63343;BME280;49465;57.664;39.686;2023-01-15T05:04:17;100896.56;;;0.66;61.29
63343;BME280;49465;57.664;39.686;2023-01-15T05:06:43;100887.06;;;0.68;60.95
63343;BME280;49465;57.664;39.686;2023-01-15T05:09:12;100894.91;;;0.62;61.31
63343;BME280;49465;57.664;39.686;2023-01-15T05:11:41;100886.25;;;0.64;61.03
63343;BME280;49465;57.664;39.686;2023-01-15T05:14:07;100891.41;;;0.66;61.15
63343;BME280;49465;57.664;39.686;2023-01-15T05:16:34;100897.41;;;0.68;61.23
63343;BME280;49465;57.664;39.686;2023-01-15T05:19:04;100898.34;;;0.62;61.15
63343;BME280;49465;57.664;39.686;2023-01-15T05:21:35;100898.19;;;0.73;61.14
63343;BME280;49465;57.664;39.686;2023-01-15T05:24:04;100898.19;;;0.73;60.93
63343;BME280;49465;57.664;39.686;2023-01-15T05:26:38;100900.81;;;0.68;61.03
63343;BME280;49465;57.664;39.686;2023-01-15T05:29:13;100895.72;;;0.65;60.94
63343;BME280;49465;57.664;39.686;2023-01-15T05:31:59;100884.75;;;1.08;60.92
63343;BME280;49465;57.664;39.686;2023-01-15T05:34:28;100890.38;;;0.77;61.02
63343;BME280;49465;57.664;39.686;2023-01-15T05:36:54;100887.16;;;0.63;61.10
63343;BME280;49465;57.664;39.686;2023-01-15T05:39:27;100882.72;;;0.73;61.13
63343;BME280;49465;57.664;39.686;2023-01-15T05:41:54;100880.34;;;0.56;61.26
63343;BME280;49465;57.664;39.686;2023-01-15T05:44:25;100898.94;;;0.79;61.30
63343;BME280;49465;57.664;39.686;2023-01-15T05:46:57;100894.00;;;0.64;61.06
63343;BME280;49465;57.664;39.686;2023-01-15T05:49:30;100886.88;;;0.80;61.23
63343;BME280;49465;57.664;39.686;2023-01-15T05:51:57;100888.81;;;0.67;60.96
63343;BME280;49465;57.664;39.686;2023-01-15T05:54:28;100890.44;;;0.73;60.37
63343;BME280;49465;57.664;39.686;2023-01-15T05:56:55;100890.47;;;0.71;60.96
63343;BME280;49465;57.664;39.686;2023-01-15T05:59:31;100897.00;;;0.94;60.94
63343;BME280;49465;57.664;39.686;2023-01-15T06:02:00;100898.03;;;0.82;61.09
63343;BME280;49465;57.664;39.686;2023-01-15T06:04:27;100904.28;;;0.69;60.95
63343;BME280;49465;57.664;39.686;2023-01-15T06:06:55;100897.31;;;0.74;61.03
63343;BME280;49465;57.664;39.686;2023-01-15T06:09:22;100898.31;;;0.64;61.16
63343;BME280;49465;57.664;39.686;2023-01-15T06:11:49;100901.69;;;0.69;61.08
63343;BME280;49465;57.664;39.686;2023-01-15T06:14:19;100900.66;;;0.81;61.04
63343;BME280;49465;57.664;39.686;2023-01-15T06:16:45;100893.97;;;0.67;61.14
63343;BME280;49465;57.664;39.686;2023-01-15T06:19:15;100904.22;;;0.72;61.01
63343;BME280;49465;57.664;39.686;2023-01-15T06:21:42;100909.47;;;0.67;61.11
63343;BME280;49465;57.664;39.686;2023-01-15T06:24:09;100921.34;;;0.77;60.79
63343;BME280;49465;57.664;39.686;2023-01-15T06:26:37;100923.94;;;0.77;60.63
63343;BME280;49465;57.664;39.686;2023-01-15T06:29:07;100923.84;;;0.85;60.93
63343;BME280;49465;57.664;39.686;2023-01-15T06:31:38;100921.25;;;0.87;61.05
63343;BME280;49465;57.664;39.686;2023-01-15T06:34:10;100931.66;;;0.79;61.06
63343;BME280;49465;57.664;39.686;2023-01-15T06:36:39;100916.28;;;0.71;61.18
63343;BME280;49465;57.664;39.686;2023-01-15T06:39:08;100918.75;;;0.79;61.15
63343;BME280;49465;57.664;39.686;2023-01-15T06:41:38;100911.97;;;0.70;61.00
63343;BME280;49465;57.664;39.686;2023-01-15T06:44:26;100914.38;;;0.84;61.34
63343;BME280;49465;57.664;39.686;2023-01-15T06:47:23;100916.72;;;1.01;60.88
63343;BME280;49465;57.664;39.686;2023-01-15T06:49:59;100927.13;;;0.96;61.13
63343;BME280;49465;57.664;39.686;2023-01-15T06:52:29;100922.09;;;0.87;61.21
63343;BME280;49465;57.664;39.686;2023-01-15T06:54:55;100910.16;;;0.78;60.79
63343;BME280;49465;57.664;39.686;2023-01-15T06:57:27;100915.16;;;0.91;61.22
63343;BME280;49465;57.664;39.686;2023-01-15T06:59:59;100912.78;;;0.75;60.87
63343;BME280;49465;57.664;39.686;2023-01-15T07:02:29;100916.28;;;0.71;61.08
63343;BME280;49465;57.664;39.686;2023-01-15T07:04:55;100919.72;;;0.70;61.18
63343;BME280;49465;57.664;39.686;2023-01-15T07:07:27;100916.00;;;0.90;61.27
63343;BME280;49465;57.664;39.686;2023-01-15T07:10:00;100917.00;;;0.83;60.94
63343;BME280;49465;57.664;39.686;2023-01-15T07:12:36;100922.06;;;0.89;60.88
63343;BME280;49465;57.664;39.686;2023-01-15T07:15:06;100918.03;;;0.69;61.23
63343;BME280;49465;57.664;39.686;2023-01-15T07:17:33;100914.53;;;0.73;60.96
63343;BME280;49465;57.664;39.686;2023-01-15T07:20:00;100908.53;;;0.73;61.21
63343;BME280;49465;57.664;39.686;2023-01-15T07:22:40;100908.38;;;0.82;61.35
63343;BME280;49465;57.664;39.686;2023-01-15T07:25:07;100905.97;;;0.71;61.00
63343;BME280;49465;57.664;39.686;2023-01-15T07:27:34;100907.75;;;0.65;61.55
63343;BME280;49465;57.664;39.686;2023-01-15T07:30:03;100911.00;;;0.81;61.43
63343;BME280;49465;57.664;39.686;2023-01-15T07:32:32;100901.63;;;0.72;61.24
63343;BME280;49465;57.664;39.686;2023-01-15T07:34:58;100900.72;;;0.77;61.05
63343;BME280;49465;57.664;39.686;2023-01-15T07:37:30;100898.97;;;0.76;60.99
63343;BME280;49465;57.664;39.686;2023-01-15T07:40:06;100898.53;;;1.07;61.29
63343;BME280;49465;57.664;39.686;2023-01-15T07:42:35;100910.91;;;0.88;60.96
63343;BME280;49465;57.664;39.686;2023-01-15T07:45:23;100905.56;;;0.99;61.16
63343;BME280;49465;57.664;39.686;2023-01-15T07:48:11;100914.22;;;0.96;61.03
63343;BME280;49465;57.664;39.686;2023-01-15T07:50:55;100908.31;;;0.87;60.71
63343;BME280;49465;57.664;39.686;2023-01-15T07:53:22;100911.13;;;0.71;61.23
63343;BME280;49465;57.664;39.686;2023-01-15T07:55:51;100908.31;;;0.88;61.29
63343;BME280;49465;57.664;39.686;2023-01-15T07:58:25;100906.69;;;0.81;61.07
63343;BME280;49465;57.664;39.686;2023-01-15T08:00:54;100912.59;;;0.88;61.11
63343;BME280;49465;57.664;39.686;2023-01-15T08:03:24;100910.84;;;0.90;61.11
63343;BME280;49465;57.664;39.686;2023-01-15T08:05:50;100901.41;;;0.89;60.79
63343;BME280;49465;57.664;39.686;2023-01-15T08:08:19;100909.78;;;1.03;60.74
63343;BME280;49465;57.664;39.686;2023-01-15T08:10:45;100906.56;;;0.90;60.69
63343;BME280;49465;57.664;39.686;2023-01-15T08:13:33;100908.22;;;0.94;60.61
63343;BME280;49465;57.664;39.686;2023-01-15T08:16:18;100905.59;;;0.96;60.47
63343;BME280;49465;57.664;39.686;2023-01-15T08:18:47;100905.63;;;0.94;60.53
63343;BME280;49465;57.664;39.686;2023-01-15T08:21:14;100904.69;;;1.00;60.75
63343;BME280;49465;57.664;39.686;2023-01-15T08:23:44;100903.84;;;0.98;60.38
63343;BME280;49465;57.664;39.686;2023-01-15T08:26:12;100906.47;;;0.95;60.49
63343;BME280;49465;57.664;39.686;2023-01-15T08:28:41;100908.94;;;1.04;60.55
63343;BME280;49465;57.664;39.686;2023-01-15T08:31:08;100910.75;;;0.96;60.52
63343;BME280;49465;57.664;39.686;2023-01-15T08:33:43;100923.59;;;1.02;60.50
63343;BME280;49465;57.664;39.686;2023-01-15T08:36:12;100919.25;;;1.04;60.43
63343;BME280;49465;57.664;39.686;2023-01-15T08:38:42;100921.78;;;1.06;60.22
63343;BME280;49465;57.664;39.686;2023-01-15T08:41:15;100926.03;;;1.11;60.25
63343;BME280;49465;57.664;39.686;2023-01-15T08:43:44;100925.94;;;1.17;60.32
63343;BME280;49465;57.664;39.686;2023-01-15T08:46:11;100920.03;;;1.09;60.19
63343;BME280;49465;57.664;39.686;2023-01-15T08:48:37;100915.75;;;1.08;60.07
63343;BME280;49465;57.664;39.686;2023-01-15T08:51:09;100918.00;;;1.30;60.36
63343;BME280;49465;57.664;39.686;2023-01-15T08:53:39;100912.34;;;1.06;60.28
63343;BME280;49465;57.664;39.686;2023-01-15T08:56:16;100921.41;;;1.32;60.27
63343;BME280;49465;57.664;39.686;2023-01-15T08:58:46;100911.34;;;1.13;60.25
63343;BME280;49465;57.664;39.686;2023-01-15T09:01:13;100917.34;;;1.15;59.79
63343;BME280;49465;57.664;39.686;2023-01-15T09:03:43;100913.78;;;1.26;60.43
63343;BME280;49465;57.664;39.686;2023-01-15T09:06:10;100921.69;;;1.13;60.09
63343;BME280;49465;57.664;39.686;2023-01-15T09:08:40;100920.72;;;1.21;59.86
63343;BME280;49465;57.664;39.686;2023-01-15T09:11:15;100912.03;;;1.26;59.97
63343;BME280;49465;57.664;39.686;2023-01-15T09:13:41;100909.47;;;1.25;59.87
63343;BME280;49465;57.664;39.686;2023-01-15T09:16:08;100918.03;;;1.27;59.44
63343;BME280;49465;57.664;39.686;2023-01-15T09:18:37;100918.88;;;1.29;59.90
63343;BME280;49465;57.664;39.686;2023-01-15T09:21:09;100922.25;;;1.34;60.12
63343;BME280;49465;57.664;39.686;2023-01-15T09:23:39;100922.25;;;1.34;59.70
63343;BME280;49465;57.664;39.686;2023-01-15T09:26:06;100925.75;;;1.30;59.92
63343;BME280;49465;57.664;39.686;2023-01-15T09:28:34;100917.19;;;1.28;59.84
63343;BME280;49465;57.664;39.686;2023-01-15T09:31:04;100914.63;;;1.25;59.74
63343;BME280;49465;57.664;39.686;2023-01-15T09:33:30;100912.88;;;1.25;59.64
63343;BME280;49465;57.664;39.686;2023-01-15T09:35:56;100904.31;;;1.23;59.77
63343;BME280;49465;57.664;39.686;2023-01-15T09:38:22;100902.53;;;1.27;59.77
63343;BME280;49465;57.664;39.686;2023-01-15T09:41:10;100917.59;;;1.54;59.51
63343;BME280;49465;57.664;39.686;2023-01-15T09:44:22;100906.84;;;1.77;59.47
63343;BME280;49465;57.664;39.686;2023-01-15T09:55:04;100905.47;;;1.58;59.56
63343;BME280;49465;57.664;39.686;2023-01-15T09:57:39;100914.38;;;1.40;59.41
63343;BME280;49465;57.664;39.686;2023-01-15T10:00:22;100909.69;;;1.64;59.65
63343;BME280;49465;57.664;39.686;2023-01-15T10:03:20;100912.97;;;1.72;58.92
63343;BME280;49465;57.664;39.686;2023-01-15T10:05:54;100908.72;;;2.16;58.08
63343;BME280;49465;57.664;39.686;2023-01-15T10:08:53;100912.16;;;1.68;58.94
63343;BME280;49465;57.664;39.686;2023-01-15T10:11:20;100916.16;;;1.36;59.17
63343;BME280;49465;57.664;39.686;2023-01-15T10:13:59;100913.28;;;1.55;59.14
63343;BME280;49465;57.664;39.686;2023-01-15T10:16:30;100910.06;;;1.41;59.72
63343;BME280;49465;57.664;39.686;2023-01-15T10:19:01;100910.97;;;1.40;59.48
63343;BME280;49465;57.664;39.686;2023-01-15T10:24:36;100905.91;;;1.82;59.27
63343;BME280;49465;57.664;39.686;2023-01-15T10:27:18;100900.88;;;1.72;59.54
63343;BME280;49465;57.664;39.686;2023-01-15T10:30:05;100899.34;;;1.64;59.61
63343;BME280;49465;57.664;39.686;2023-01-15T10:32:52;100907.88;;;1.69;59.64
63343;BME280;49465;57.664;39.686;2023-01-15T10:38:34;100901.34;;;1.48;59.48
63343;BME280;49465;57.664;39.686;2023-01-15T10:41:19;100892.53;;;1.60;59.43
63343;BME280;49465;57.664;39.686;2023-01-15T10:43:56;100890.03;;;1.53;59.23
63343;BME280;49465;57.664;39.686;2023-01-15T10:46:30;100889.22;;;1.51;59.38
63343;BME280;49465;57.664;39.686;2023-01-15T10:49:13;100888.84;;;1.73;59.52
63343;BME280;49465;57.664;39.686;2023-01-15T10:54:46;100867.34;;;1.71;59.56
63343;BME280;49465;57.664;39.686;2023-01-15T10:57:43;100863.81;;;1.75;59.16
63343;BME280;49465;57.664;39.686;2023-01-15T11:00:15;100862.50;;;1.51;59.14
63343;BME280;49465;57.664;39.686;2023-01-15T11:02:55;100863.81;;;1.75;59.46
63343;BME280;49465;57.664;39.686;2023-01-15T11:05:31;100864.00;;;1.64;59.14
63343;BME280;49465;57.664;39.686;2023-01-15T11:08:10;100862.94;;;1.74;59.57
63343;BME280;49465;57.664;39.686;2023-01-15T11:10:40;100859.09;;;1.49;59.35
63343;BME280;49465;57.664;39.686;2023-01-15T11:15:59;100866.66;;;1.60;59.50
63343;BME280;49465;57.664;39.686;2023-01-15T11:18:48;100867.59;;;1.55;59.78
63343;BME280;49465;57.664;39.686;2023-01-15T11:21:40;100870.69;;;1.74;59.61
63343;BME280;49465;57.664;39.686;2023-01-15T11:24:13;100867.66;;;2.41;58.02
63343;BME280;49465;57.664;39.686;2023-01-15T11:26:51;100874.06;;;1.80;59.21
63343;BME280;49465;57.664;39.686;2023-01-15T11:31:55;100869.16;;;1.64;59.29
63343;BME280;49465;57.664;39.686;2023-01-15T11:34:21;100865.72;;;1.64;59.15
63343;BME280;49465;57.664;39.686;2023-01-15T11:37:10;100865.97;;;1.50;59.44
63343;BME280;49465;57.664;39.686;2023-01-15T11:39:38;100861.59;;;1.55;59.36
63343;BME280;49465;57.664;39.686;2023-01-15T11:42:11;100866.59;;;1.63;59.38
63343;BME280;49465;57.664;39.686;2023-01-15T11:44:58;100857.03;;;1.68;58.77
63343;BME280;49465;57.664;39.686;2023-01-15T11:47:54;100863.41;;;1.96;58.87
63343;BME280;49465;57.664;39.686;2023-01-15T11:50:54;100868.59;;;1.93;58.51
63343;BME280;49465;57.664;39.686;2023-01-15T11:53:26;100870.81;;;1.68;59.30
63343;BME280;49465;57.664;39.686;2023-01-15T11:55:58;100864.00;;;1.64;58.83
63343;BME280;49465;57.664;39.686;2023-01-15T11:58:42;100863.78;;;1.76;59.08
63343;BME280;49465;57.664;39.686;2023-01-15T12:03:55;100870.81;;;1.68;58.86
63343;BME280;49465;57.664;39.686;2023-01-15T12:06:25;100874.25;;;1.69;58.36
63343;BME280;49465;57.664;39.686;2023-01-15T12:09:16;100871.97;;;1.98;58.20
63343;BME280;49465;57.664;39.686;2023-01-15T12:11:57;100871.56;;;1.75;58.42
63343;BME280;49465;57.664;39.686;2023-01-15T12:14:40;100875.13;;;1.68;59.07
63343;BME280;49465;57.664;39.686;2023-01-15T12:22:49;100868.44;;;1.57;58.95
63343;BME280;49465;57.664;39.686;2023-01-15T12:28:10;100854.81;;;1.94;57.77
63343;BME280;49465;57.664;39.686;2023-01-15T12:30:57;100855.44;;;1.61;58.63
63343;BME280;49465;57.664;39.686;2023-01-15T12:33:52;100861.78;;;1.89;58.41
63343;BME280;49465;57.664;39.686;2023-01-15T12:36:36;100851.63;;;1.80;58.63
63343;BME280;49465;57.664;39.686;2023-01-15T12:39:18;100860.06;;;1.90;58.40
63343;BME280;49465;57.664;39.686;2023-01-15T12:41:56;100854.34;;;1.72;58.75
63343;BME280;49465;57.664;39.686;2023-01-15T12:44:51;100864.66;;;1.74;58.88
63343;BME280;49465;57.664;39.686;2023-01-15T12:51:15;100873.09;;;1.85;58.36
63343;BME280;49465;57.664;39.686;2023-01-15T12:54:05;100867.88;;;1.88;58.44
63343;BME280;49465;57.664;39.686;2023-01-15T13:00:21;100874.69;;;1.92;58.04
63343;BME280;49465;57.664;39.686;2023-01-15T13:05:55;100878.50;;;1.73;58.74
63343;BME280;49465;57.664;39.686;2023-01-15T13:08:53;100880.97;;;1.77;58.21
63343;BME280;49465;57.664;39.686;2023-01-15T13:11:24;100875.50;;;1.48;58.72
63343;BME280;49465;57.664;39.686;2023-01-15T13:13:51;100875.63;;;1.40;58.88
63343;BME280;49465;57.664;39.686;2023-01-15T13:22:02;100889.03;;;1.61;58.90
63343;BME280;49465;57.664;39.686;2023-01-15T13:27:39;100900.97;;;1.68;59.03
63343;BME280;49465;57.664;39.686;2023-01-15T13:33:03;100903.81;;;1.54;58.91
63343;BME280;49465;57.664;39.686;2023-01-15T13:35:55;100912.06;;;1.74;58.75
63343;BME280;49465;57.664;39.686;2023-01-15T13:38:28;100915.09;;;1.48;58.73
63343;BME280;49465;57.664;39.686;2023-01-15T13:40:56;100904.91;;;1.39;58.88
63343;BME280;49465;57.664;39.686;2023-01-15T13:46:00;100914.34;;;1.43;58.85
63343;BME280;49465;57.664;39.686;2023-01-15T13:48:47;100897.41;;;1.76;58.17
63343;BME280;49465;57.664;39.686;2023-01-15T13:51:33;100900.97;;;1.68;58.48
63343;BME280;49465;57.664;39.686;2023-01-15T13:54:14;100892.69;;;1.49;58.98
63343;BME280;49465;57.664;39.686;2023-01-15T13:56:43;100874.13;;;1.27;59.08
63343;BME280;49465;57.664;39.686;2023-01-15T14:02:32;100887.50;;;1.50;59.04
63343;BME280;49465;57.664;39.686;2023-01-15T14:05:10;100881.84;;;1.28;58.92
63343;BME280;49465;57.664;39.686;2023-01-15T14:07:38;100887.84;;;1.29;58.99
63343;BME280;49465;57.664;39.686;2023-01-15T14:29:31;100869.19;;;1.13;58.67
63343;BME280;49465;57.664;39.686;2023-01-15T14:34:58;100867.44;;;1.13;58.95
63343;BME280;49465;57.664;39.686;2023-01-15T14:37:46;100873.88;;;1.42;58.88
63343;BME280;49465;57.664;39.686;2023-01-15T14:40:29;100871.31;;;1.39;58.94
63343;BME280;49465;57.664;39.686;2023-01-15T14:43:05;100873.28;;;1.25;58.93
63343;BME280;49465;57.664;39.686;2023-01-15T14:45:41;100871.25;;;0.92;59.27
63343;BME280;49465;57.664;39.686;2023-01-15T14:50:53;100856.56;;;0.94;59.08
63343;BME280;49465;57.664;39.686;2023-01-15T14:53:37;100869.03;;;1.24;58.83
63343;BME280;49465;57.664;39.686;2023-01-15T14:56:29;100872.00;;;1.50;58.33
63343;BME280;49465;57.664;39.686;2023-01-15T15:00:04;100870.16;;;1.57;58.17
63343;BME280;49465;57.664;39.686;2023-01-15T15:05:24;100863.22;;;1.08;58.51
63343;BME280;49465;57.664;39.686;2023-01-15T15:07:57;100870.78;;;1.22;58.51
63343;BME280;49465;57.664;39.686;2023-01-15T15:10:36;100869.78;;;1.29;58.60
63343;BME280;49465;57.664;39.686;2023-01-15T15:13:33;100871.47;;;1.31;58.43